createdAt,value
2022-10-04T00:02:29.300Z,3.10
2022-10-04T00:05:34.243Z,3.53
2022-10-04T00:08:45.833Z,3.77
2022-10-04T00:11:49.350Z,3.97
2022-10-04T00:14:53.977Z,3.60
2022-10-04T00:18:09.356Z,3.90
2022-10-04T00:21:13.562Z,3.80
2022-10-04T00:24:23.097Z,3.60
2022-10-04T00:27:28.192Z,4.80
2022-10-04T00:30:38.563Z,4.00
2022-10-04T00:33:42.910Z,3.97
2022-10-04T00:36:57.510Z,3.80
2022-10-04T00:40:11.143Z,3.73
2022-10-04T00:43:19.337Z,3.30
2022-10-04T00:46:24.831Z,4.20
2022-10-04T00:49:34.743Z,3.63
2022-10-04T00:52:46.279Z,3.10
2022-10-04T00:55:52.588Z,3.17
2022-10-04T00:59:23.003Z,2.60
2022-10-04T01:02:32.849Z,2.80
2022-10-04T01:05:39.309Z,2.73
2022-10-04T01:08:49.114Z,2.70
2022-10-04T01:12:01.564Z,2.60
2022-10-04T01:15:08.627Z,2.87
2022-10-04T01:18:15.419Z,2.57
2022-10-04T01:21:28.246Z,2.60
2022-10-04T01:24:37.702Z,2.60
2022-10-04T01:27:43.929Z,2.60
2022-10-04T01:30:47.431Z,2.67
2022-10-04T01:33:50.226Z,2.50
2022-10-04T01:36:55.399Z,2.80
2022-10-04T01:40:00.129Z,2.83
2022-10-04T01:43:07.791Z,2.50
2022-10-04T01:46:14.432Z,2.73
2022-10-04T01:49:21.634Z,3.10
2022-10-04T01:52:31.235Z,2.60
2022-10-04T01:55:38.441Z,2.63
2022-10-04T01:58:46.214Z,2.70
2022-10-04T02:01:54.860Z,3.03
2022-10-04T02:05:00.652Z,2.80
2022-10-04T02:08:06.304Z,2.60
2022-10-04T02:11:11.849Z,2.40
2022-10-04T02:14:17.803Z,2.50
2022-10-04T02:17:23.896Z,2.63
2022-10-04T02:20:28.385Z,3.20
2022-10-04T02:23:32.489Z,3.03
2022-10-04T02:26:36.608Z,3.13
2022-10-04T02:29:39.415Z,2.43
2022-10-04T02:32:59.717Z,2.73
2022-10-04T02:36:03.044Z,2.83
2022-10-04T02:39:11.475Z,2.40
2022-10-04T02:42:20.435Z,2.23
2022-10-04T02:45:29.537Z,2.40
2022-10-04T02:48:39.572Z,2.57
2022-10-04T02:51:48.551Z,2.90
2022-10-04T02:55:01.027Z,2.37
2022-10-04T02:58:11.133Z,2.53
2022-10-04T03:01:26.402Z,2.30
2022-10-04T03:04:31.895Z,2.40
2022-10-04T03:07:36.827Z,2.50
2022-10-04T03:10:43.190Z,2.53
2022-10-04T03:13:50.317Z,3.20
2022-10-04T03:16:55.650Z,3.63
2022-10-04T03:19:59.212Z,2.60
2022-10-04T03:23:05.211Z,2.90
2022-10-04T03:26:21.456Z,2.30
2022-10-04T03:29:28.608Z,2.97
2022-10-04T03:32:32.745Z,3.17
2022-10-04T03:35:39.046Z,2.27
2022-10-04T03:38:41.845Z,2.90
2022-10-04T03:41:44.921Z,2.77
2022-10-04T03:44:51.776Z,2.43
2022-10-04T03:47:59.804Z,2.60
2022-10-04T03:51:05.548Z,2.00
2022-10-04T03:54:12.335Z,2.53
2022-10-04T03:57:15.210Z,2.40
2022-10-04T04:00:20.090Z,2.50
2022-10-04T04:03:23.995Z,2.30
2022-10-04T04:06:30.578Z,2.30
2022-10-04T04:09:42.877Z,2.67
2022-10-04T04:12:52.932Z,2.40
2022-10-04T04:15:58.366Z,2.43
2022-10-04T04:19:04.839Z,2.20
2022-10-04T04:22:08.151Z,3.20
2022-10-04T04:25:17.552Z,2.70
2022-10-04T04:28:27.706Z,2.23
2022-10-04T04:31:37.555Z,2.20
2022-10-04T04:34:52.838Z,2.20
2022-10-04T04:38:15.037Z,2.20
2022-10-04T04:41:17.804Z,2.23
2022-10-04T04:44:20.898Z,2.43
2022-10-04T04:47:33.816Z,2.60
2022-10-04T04:50:41.075Z,2.43
2022-10-04T04:53:44.333Z,2.80
2022-10-04T04:56:50.132Z,3.20
2022-10-04T04:59:57.210Z,3.80
2022-10-04T05:03:03.800Z,3.67
2022-10-04T05:06:23.390Z,4.17
2022-10-04T05:09:29.910Z,3.60
2022-10-04T05:12:32.703Z,5.27
2022-10-04T05:15:38.086Z,5.33
2022-10-04T05:18:42.428Z,4.20
2022-10-04T05:21:47.948Z,4.90
2022-10-04T05:24:54.682Z,7.37
2022-10-04T05:27:58.224Z,4.90
2022-10-04T05:31:33.380Z,4.90
2022-10-04T05:34:41.244Z,4.77
2022-10-04T05:37:58.263Z,5.30
2022-10-04T05:41:07.681Z,4.83
2022-10-04T05:44:27.143Z,7.60
2022-10-04T05:47:32.199Z,3.17
2022-10-04T05:50:40.644Z,3.00
2022-10-04T05:53:44.714Z,5.30
2022-10-04T05:57:05.105Z,4.67
2022-10-04T06:00:17.479Z,4.60
2022-10-04T06:03:42.238Z,4.27
2022-10-04T06:06:51.485Z,5.70
2022-10-04T06:10:36.522Z,6.23
2022-10-04T06:13:59.940Z,6.83
2022-10-04T06:17:35.715Z,5.50
2022-10-04T06:20:56.614Z,5.17
2022-10-04T06:24:10.455Z,6.47
2022-10-04T06:27:17.086Z,5.30
2022-10-04T06:30:21.464Z,4.50
2022-10-04T06:33:41.905Z,4.60
2022-10-04T06:37:02.819Z,5.80
2022-10-04T06:40:29.485Z,5.97
2022-10-04T06:43:47.371Z,5.90
2022-10-04T06:46:53.519Z,4.47
2022-10-04T06:50:05.813Z,5.80
2022-10-04T06:53:21.194Z,4.50
2022-10-04T06:56:44.199Z,5.30
2022-10-04T07:00:04.481Z,5.13
2022-10-04T07:03:15.260Z,4.30
2022-10-04T07:06:27.004Z,4.97
2022-10-04T07:09:30.673Z,4.67
2022-10-04T07:12:39.868Z,5.73
2022-10-04T07:15:50.111Z,5.33
2022-10-04T07:19:08.388Z,5.20
2022-10-04T07:22:18.479Z,4.53
2022-10-04T07:25:25.155Z,4.90
2022-10-04T07:28:52.025Z,5.13
2022-10-04T07:32:08.304Z,4.73
2022-10-04T07:35:22.109Z,6.10
2022-10-04T07:38:28.375Z,4.57
2022-10-04T07:41:36.598Z,5.47
2022-10-04T07:44:43.942Z,5.60
2022-10-04T07:47:47.491Z,4.13
2022-10-04T07:51:00.204Z,5.43
2022-10-04T07:54:12.451Z,5.20
2022-10-04T07:57:23.766Z,5.57
2022-10-04T08:00:35.576Z,5.20
2022-10-04T08:03:49.130Z,6.80
2022-10-04T08:06:59.226Z,5.00
2022-10-04T08:10:07.845Z,5.83
2022-10-04T08:13:23.341Z,4.27
2022-10-04T08:16:36.870Z,3.37
2022-10-04T08:19:48.851Z,4.00
2022-10-04T08:23:03.092Z,4.37
2022-10-04T08:26:20.187Z,4.10
2022-10-04T08:29:43.586Z,4.17
2022-10-04T08:33:06.396Z,4.20
2022-10-04T08:36:22.540Z,3.90
2022-10-04T08:39:41.881Z,4.17
2022-10-04T08:43:21.001Z,3.23
2022-10-04T08:47:09.229Z,4.33
2022-10-04T08:50:44.482Z,3.87
2022-10-04T08:54:20.220Z,4.40
2022-10-04T08:57:45.940Z,4.23
2022-10-04T09:01:01.101Z,3.90
2022-10-04T09:04:45.678Z,4.47
2022-10-04T09:08:04.602Z,4.40
2022-10-04T09:11:32.368Z,4.33
2022-10-04T09:14:52.308Z,4.47
2022-10-04T09:18:02.899Z,2.83
2022-10-04T09:21:11.793Z,4.30
2022-10-04T09:24:39.500Z,3.33
2022-10-04T09:28:15.433Z,4.27
2022-10-04T09:31:44.583Z,4.50
2022-10-04T09:35:06.601Z,3.87
2022-10-04T09:38:29.792Z,4.07
2022-10-04T09:41:45.108Z,4.10
2022-10-04T09:45:15.750Z,3.83
2022-10-04T09:48:29.039Z,3.70
2022-10-04T09:52:02.866Z,4.07
2022-10-04T09:55:29.728Z,3.83
2022-10-04T09:59:08.679Z,3.67
2022-10-04T10:02:43.826Z,3.20
2022-10-04T10:05:57.567Z,4.17
2022-10-04T10:09:16.163Z,3.93
2022-10-04T10:13:09.615Z,3.97
2022-10-04T10:16:30.064Z,2.93
2022-10-04T10:20:04.654Z,2.30
2022-10-04T10:23:30.763Z,3.27
2022-10-04T10:27:07.255Z,4.07
2022-10-04T10:30:24.400Z,3.77
2022-10-04T10:33:42.946Z,3.37
2022-10-04T10:37:09.086Z,4.17
2022-10-04T10:40:33.385Z,3.10
2022-10-04T10:43:52.132Z,3.20
2022-10-04T10:47:06.369Z,3.43
2022-10-04T10:50:28.182Z,2.97
2022-10-04T10:53:54.003Z,2.60
2022-10-04T10:57:06.887Z,2.93
2022-10-04T11:00:23.367Z,3.20
2022-10-04T11:03:54.770Z,3.43
2022-10-04T11:07:38.251Z,2.93
2022-10-04T11:11:11.379Z,3.47
2022-10-04T11:14:47.628Z,3.10
2022-10-04T11:18:28.982Z,3.60
2022-10-04T11:22:17.394Z,3.00
2022-10-04T11:26:03.061Z,3.67
2022-10-04T11:29:20.468Z,3.57
2022-10-04T11:32:46.385Z,3.37
2022-10-04T11:36:28.106Z,3.80
2022-10-04T11:39:58.526Z,2.90
2022-10-04T11:43:24.285Z,3.20
2022-10-04T11:46:38.202Z,3.07
2022-10-04T11:50:15.601Z,3.20
2022-10-04T11:53:40.548Z,3.40
2022-10-04T11:57:06.093Z,3.17
2022-10-04T12:00:16.293Z,3.17
2022-10-04T12:03:56.545Z,2.87
2022-10-04T12:07:34.197Z,3.07
2022-10-04T12:10:39.446Z,2.83
2022-10-04T12:13:59.539Z,2.90
2022-10-04T12:17:46.439Z,2.93
2022-10-04T12:21:22.070Z,3.13
2022-10-04T12:24:48.402Z,2.60
2022-10-04T12:28:18.534Z,3.27
2022-10-04T12:31:27.322Z,3.07
2022-10-04T12:34:41.427Z,2.73
2022-10-04T12:38:08.297Z,2.70
2022-10-04T12:41:22.986Z,2.60
2022-10-04T12:44:42.033Z,3.00
2022-10-04T12:48:11.022Z,2.70
2022-10-04T12:51:28.843Z,2.20
2022-10-04T12:54:39.972Z,2.53
2022-10-04T12:57:51.346Z,2.17
2022-10-04T13:01:02.246Z,2.67
2022-10-04T13:04:20.501Z,2.10
2022-10-04T13:07:45.065Z,2.03
2022-10-04T13:11:07.314Z,2.17
2022-10-04T13:14:39.760Z,2.27
2022-10-04T13:17:50.497Z,2.20
2022-10-04T13:21:03.127Z,2.30
2022-10-04T13:24:19.058Z,2.53
2022-10-04T13:27:30.650Z,2.10
2022-10-04T13:30:39.488Z,1.60
2022-10-04T13:33:52.299Z,2.33
2022-10-04T13:37:07.105Z,1.60
2022-10-04T13:40:32.565Z,2.10
2022-10-04T13:43:56.915Z,2.00
2022-10-04T13:47:21.598Z,2.27
2022-10-04T13:50:39.212Z,2.00
2022-10-04T13:54:10.542Z,2.33
2022-10-04T13:57:22.560Z,2.43
2022-10-04T14:00:43.571Z,2.63
2022-10-04T14:04:00.731Z,1.73
2022-10-04T14:07:31.090Z,2.03
2022-10-04T14:11:02.655Z,2.00
2022-10-04T14:14:33.727Z,2.03
2022-10-04T14:18:04.372Z,1.80
2022-10-04T14:21:55.298Z,1.87
2022-10-04T14:25:40.230Z,2.00
2022-10-04T14:29:34.419Z,1.60
2022-10-04T14:33:07.238Z,1.83
2022-10-04T14:36:36.434Z,2.13
2022-10-04T14:40:06.252Z,1.43
2022-10-04T14:43:35.219Z,2.13
2022-10-04T14:46:52.085Z,1.90
2022-10-04T14:50:19.199Z,1.50
2022-10-04T14:53:28.308Z,1.67
2022-10-04T14:56:44.513Z,1.60
2022-10-04T15:00:08.707Z,1.93
2022-10-04T15:03:30.115Z,1.57
2022-10-04T15:06:49.158Z,2.07
2022-10-04T15:09:57.950Z,1.90
2022-10-04T15:13:12.292Z,2.60
2022-10-04T15:16:23.183Z,2.03
2022-10-04T15:19:30.714Z,1.70
2022-10-04T15:22:44.437Z,1.50
2022-10-04T15:25:52.132Z,1.83
2022-10-04T15:29:07.187Z,1.70
2022-10-04T15:32:25.874Z,1.70
2022-10-04T15:35:40.807Z,1.80
2022-10-04T15:38:53.793Z,2.17
2022-10-04T15:42:03.893Z,1.90
2022-10-04T15:45:38.228Z,1.80
2022-10-04T15:48:51.598Z,1.80
2022-10-04T15:52:16.131Z,1.63
2022-10-04T15:55:25.734Z,1.53
2022-10-04T15:59:07.140Z,1.97
2022-10-04T16:02:35.740Z,2.10
2022-10-04T16:05:45.767Z,1.80
2022-10-04T16:09:03.733Z,2.63
2022-10-04T16:12:20.559Z,1.90
2022-10-04T16:15:33.293Z,1.63
2022-10-04T16:18:47.291Z,2.00
2022-10-04T16:21:53.833Z,1.90
2022-10-04T16:25:00.059Z,2.50
2022-10-04T16:28:14.014Z,1.90
2022-10-04T16:31:24.747Z,2.00
2022-10-04T16:34:48.465Z,2.20
2022-10-04T16:37:58.387Z,2.40
2022-10-04T16:41:12.361Z,2.30
2022-10-04T16:44:40.636Z,2.03
2022-10-04T16:47:56.525Z,2.40
2022-10-04T16:51:33.948Z,4.73
2022-10-04T16:55:04.580Z,2.53
2022-10-04T16:58:56.141Z,2.73
2022-10-04T17:02:24.441Z,2.90
2022-10-04T17:06:02.535Z,2.60
2022-10-04T17:09:17.962Z,2.70
2022-10-04T17:12:27.334Z,3.60
2022-10-04T17:15:49.438Z,3.40
2022-10-04T17:19:14.107Z,10.33
2022-10-04T17:22:28.933Z,5.27
2022-10-04T17:25:42.788Z,5.87
2022-10-04T17:28:56.200Z,5.30
2022-10-04T17:32:03.888Z,8.00
2022-10-04T17:35:24.014Z,5.33
2022-10-04T17:38:36.390Z,4.67
2022-10-04T17:41:56.319Z,4.07
2022-10-04T17:45:27.502Z,4.70
2022-10-04T17:48:50.109Z,5.10
2022-10-04T17:52:15.476Z,4.70
2022-10-04T17:55:22.005Z,5.23
2022-10-04T17:58:31.370Z,5.70
2022-10-04T18:01:38.677Z,4.97
2022-10-04T18:04:52.014Z,8.77
2022-10-04T18:08:00.970Z,7.87
2022-10-04T18:11:14.850Z,5.87
2022-10-04T18:14:43.068Z,5.40
2022-10-04T18:17:49.690Z,4.93
2022-10-04T18:21:20.992Z,4.80
2022-10-04T18:24:30.397Z,3.97
2022-10-04T18:27:33.576Z,4.40
2022-10-04T18:30:54.023Z,5.53
2022-10-04T18:33:58.877Z,5.93
2022-10-04T18:37:07.194Z,5.63
2022-10-04T18:40:17.452Z,6.57
2022-10-04T18:43:26.898Z,6.73
2022-10-04T18:46:39.884Z,10.00
2022-10-04T18:49:48.758Z,8.10
2022-10-04T18:53:03.303Z,8.93
2022-10-04T18:56:09.730Z,8.10
2022-10-04T18:59:38.736Z,6.10
2022-10-04T19:02:51.193Z,6.37
2022-10-04T19:06:02.299Z,5.87
2022-10-04T19:09:15.783Z,5.63
2022-10-04T19:12:24.184Z,7.27
2022-10-04T19:15:40.108Z,7.77
2022-10-04T19:18:50.651Z,12.13
2022-10-04T19:21:59.934Z,7.67
2022-10-04T19:25:19.733Z,7.27
2022-10-04T19:28:28.467Z,7.10
2022-10-04T19:31:40.392Z,6.30
2022-10-04T19:34:55.305Z,6.47
2022-10-04T19:38:08.470Z,6.97
2022-10-04T19:41:19.002Z,7.30
2022-10-04T19:44:36.900Z,6.67
2022-10-04T19:47:48.915Z,8.20
2022-10-04T19:50:59.691Z,19.63
2022-10-04T19:54:14.756Z,28.27
2022-10-04T19:57:24.633Z,26.87
2022-10-04T20:00:28.720Z,11.93
2022-10-04T20:03:31.505Z,7.00
2022-10-04T20:06:34.495Z,5.57
2022-10-04T20:09:52.235Z,6.27
2022-10-04T20:13:21.518Z,6.73
2022-10-04T20:16:57.485Z,6.80
2022-10-04T20:20:01.854Z,6.37
2022-10-04T20:23:04.575Z,6.17
2022-10-04T20:26:08.875Z,5.93
2022-10-04T20:29:11.838Z,5.80
2022-10-04T20:32:55.791Z,6.10
2022-10-04T20:36:01.702Z,5.93
2022-10-04T20:39:06.266Z,7.03
2022-10-04T20:42:20.202Z,6.03
2022-10-04T20:45:27.944Z,5.93
2022-10-04T20:48:33.051Z,6.10
2022-10-04T20:51:37.908Z,6.87
2022-10-04T20:54:40.831Z,7.23
2022-10-04T20:57:44.004Z,6.87
2022-10-04T21:00:52.779Z,7.40
2022-10-04T21:04:13.405Z,28.07
2022-10-04T21:07:21.288Z,45.40
2022-10-04T21:10:24.014Z,11.40
2022-10-04T21:13:55.006Z,6.90
2022-10-04T21:17:02.438Z,6.50
2022-10-04T21:20:06.907Z,8.63
2022-10-04T21:23:19.199Z,8.83
2022-10-04T21:26:23.465Z,8.80
2022-10-04T21:29:26.196Z,9.70
2022-10-04T21:32:34.631Z,7.37
2022-10-04T21:35:37.298Z,6.87
2022-10-04T21:38:42.070Z,8.00
2022-10-04T21:41:44.944Z,7.20
2022-10-04T21:44:48.219Z,7.60
2022-10-04T21:47:51.138Z,18.40
2022-10-04T21:50:55.191Z,24.37
2022-10-04T21:53:59.538Z,13.50
2022-10-04T21:57:02.639Z,8.27
2022-10-04T22:00:06.347Z,6.90
2022-10-04T22:03:09.418Z,7.30
2022-10-04T22:06:12.114Z,6.70
2022-10-04T22:09:16.198Z,7.03
2022-10-04T22:12:18.968Z,7.00
2022-10-04T22:15:23.896Z,5.83
2022-10-04T22:18:26.846Z,5.80
2022-10-04T22:21:29.855Z,5.83
2022-10-04T22:24:34.275Z,7.63
2022-10-04T22:27:36.950Z,6.67
2022-10-04T22:30:40.025Z,6.93
2022-10-04T22:33:45.097Z,6.73
2022-10-04T22:36:50.207Z,6.30
2022-10-04T22:39:54.666Z,6.57
2022-10-04T22:43:01.067Z,6.00
2022-10-04T22:46:04.046Z,6.80
2022-10-04T22:49:11.115Z,6.40
2022-10-04T22:52:16.944Z,6.70
2022-10-04T22:55:21.105Z,6.93
2022-10-04T22:58:24.477Z,6.50
2022-10-04T23:01:28.685Z,7.30
2022-10-04T23:04:31.452Z,6.70
2022-10-04T23:07:38.189Z,7.10
2022-10-04T23:10:42.933Z,7.40
2022-10-04T23:13:45.744Z,7.00
2022-10-04T23:16:48.863Z,5.63
2022-10-04T23:19:55.298Z,6.20
2022-10-04T23:23:00.695Z,6.57
2022-10-04T23:26:14.562Z,6.83
2022-10-04T23:29:19.832Z,6.90
2022-10-04T23:32:22.522Z,6.10
2022-10-04T23:35:27.464Z,6.37
2022-10-04T23:38:30.550Z,6.43
2022-10-04T23:41:34.695Z,7.07
2022-10-04T23:44:39.442Z,7.00
2022-10-04T23:47:42.328Z,6.90
2022-10-04T23:50:45.428Z,6.77
2022-10-04T23:53:50.737Z,6.57
2022-10-04T23:56:54.817Z,7.73
